createdAt,value
2022-10-25T00:00:30.818Z,3.10
2022-10-25T00:02:57.201Z,2.83
2022-10-25T00:05:23.562Z,3.17
2022-10-25T00:07:50.040Z,3.00
2022-10-25T00:10:16.432Z,2.63
2022-10-25T00:12:43.857Z,3.00
2022-10-25T00:15:10.828Z,2.53
2022-10-25T00:17:37.131Z,2.40
2022-10-25T00:20:03.688Z,2.45
2022-10-25T00:22:29.988Z,2.80
2022-10-25T00:24:56.358Z,2.92
2022-10-25T00:27:22.699Z,2.42
2022-10-25T00:29:49.106Z,2.33
2022-10-25T00:32:15.443Z,3.17
2022-10-25T00:34:41.785Z,2.42
2022-10-25T00:37:08.205Z,2.75
2022-10-25T00:39:34.620Z,2.70
2022-10-25T00:42:01.139Z,2.60
2022-10-25T00:44:36.792Z,2.58
2022-10-25T00:47:04.560Z,2.33
2022-10-25T00:49:31.736Z,2.38
2022-10-25T00:51:59.709Z,3.03
2022-10-25T00:54:30.083Z,3.10
2022-10-25T00:56:59.235Z,2.70
2022-10-25T00:59:27.374Z,2.42
2022-10-25T01:01:54.777Z,2.53
2022-10-25T01:04:22.876Z,2.60
2022-10-25T01:06:50.243Z,2.38
2022-10-25T01:09:27.283Z,2.63
2022-10-25T01:11:53.692Z,2.50
2022-10-25T01:14:20.169Z,2.25
2022-10-25T01:16:56.892Z,2.15
2022-10-25T01:19:43.372Z,1.92
2022-10-25T01:22:38.820Z,3.17
2022-10-25T01:25:14.089Z,2.33
2022-10-25T01:27:59.324Z,2.60
2022-10-25T01:30:26.905Z,3.22
2022-10-25T01:33:08.527Z,3.25
2022-10-25T01:35:58.201Z,2.63
2022-10-25T01:38:39.969Z,3.30
2022-10-25T01:41:11.550Z,2.30
2022-10-25T01:43:56.481Z,2.85
2022-10-25T01:46:31.102Z,2.65
2022-10-25T01:49:08.801Z,2.88
2022-10-25T01:51:35.833Z,3.22
2022-10-25T01:54:02.253Z,3.25
2022-10-25T01:56:41.439Z,3.38
2022-10-25T01:59:14.601Z,3.03
2022-10-25T02:01:48.931Z,2.60
2022-10-25T02:04:18.403Z,3.13
2022-10-25T02:06:54.077Z,3.33
2022-10-25T02:09:24.273Z,2.47
2022-10-25T02:11:51.862Z,3.08
2022-10-25T02:14:25.481Z,2.80
2022-10-25T02:17:05.008Z,3.22
2022-10-25T02:19:36.853Z,3.40
2022-10-25T02:22:04.101Z,3.78
2022-10-25T02:24:31.948Z,3.42
2022-10-25T02:26:59.024Z,3.00
2022-10-25T02:29:28.121Z,2.78
2022-10-25T02:31:54.504Z,3.45
2022-10-25T02:34:21.176Z,3.08
2022-10-25T02:36:51.160Z,4.13
2022-10-25T02:39:18.149Z,3.28
2022-10-25T02:41:45.481Z,3.10
2022-10-25T02:44:11.905Z,3.25
2022-10-25T02:46:38.442Z,4.30
2022-10-25T02:49:04.922Z,3.58
2022-10-25T02:51:31.668Z,3.20
2022-10-25T02:53:58.174Z,3.05
2022-10-25T02:56:24.661Z,3.17
2022-10-25T02:58:51.823Z,2.95
2022-10-25T03:01:19.125Z,2.42
2022-10-25T03:03:45.805Z,2.75
2022-10-25T03:06:12.450Z,3.38
2022-10-25T03:08:39.237Z,3.83
2022-10-25T03:11:06.449Z,3.10
2022-10-25T03:13:32.760Z,2.97
2022-10-25T03:15:59.594Z,2.95
2022-10-25T03:18:26.156Z,3.15
2022-10-25T03:20:52.471Z,3.25
2022-10-25T03:23:18.821Z,3.42
2022-10-25T03:25:45.411Z,3.80
2022-10-25T03:28:11.769Z,4.30
2022-10-25T03:30:38.097Z,2.92
2022-10-25T03:33:04.449Z,3.05
2022-10-25T03:35:30.751Z,3.13
2022-10-25T03:37:57.125Z,3.83
2022-10-25T03:40:24.048Z,2.80
2022-10-25T03:42:50.365Z,3.20
2022-10-25T03:48:07.431Z,2.95
2022-10-25T03:50:33.884Z,3.08
2022-10-25T03:53:01.264Z,3.38
2022-10-25T03:55:27.724Z,3.78
2022-10-25T03:57:54.040Z,2.60
2022-10-25T04:00:20.394Z,2.75
2022-10-25T04:02:46.935Z,2.80
2022-10-25T04:05:13.384Z,2.83
2022-10-25T04:07:39.793Z,2.58
2022-10-25T04:10:06.216Z,2.30
2022-10-25T04:12:32.549Z,2.70
2022-10-25T04:14:58.981Z,2.95
2022-10-25T04:17:25.344Z,3.25
2022-10-25T04:19:51.784Z,3.53
2022-10-25T04:22:18.166Z,2.70
2022-10-25T04:24:44.518Z,2.75
2022-10-25T04:27:10.845Z,2.58
2022-10-25T04:29:37.256Z,2.63
2022-10-25T04:32:03.691Z,2.50
2022-10-25T04:34:30.028Z,2.42
2022-10-25T04:36:56.489Z,2.67
2022-10-25T04:39:22.992Z,2.90
2022-10-25T04:41:49.317Z,2.80
2022-10-25T04:44:15.731Z,3.47
2022-10-25T04:46:46.311Z,2.40
2022-10-25T04:49:16.443Z,3.00
2022-10-25T04:51:42.952Z,2.75
2022-10-25T04:54:11.355Z,2.22
2022-10-25T04:56:37.704Z,2.80
2022-10-25T04:59:04.021Z,3.63
2022-10-25T05:01:30.405Z,2.88
2022-10-25T05:03:56.819Z,2.47
2022-10-25T05:06:25.459Z,2.53
2022-10-25T05:08:52.089Z,2.40
2022-10-25T05:11:19.409Z,2.78
2022-10-25T05:13:46.131Z,2.30
2022-10-25T05:16:12.973Z,2.58
2022-10-25T05:18:39.536Z,2.42
2022-10-25T05:21:06.103Z,3.33
2022-10-25T05:23:33.665Z,2.40
2022-10-25T05:26:00.901Z,3.35
2022-10-25T05:28:27.212Z,2.75
2022-10-25T05:30:53.569Z,2.55
2022-10-25T05:33:19.881Z,2.75
2022-10-25T05:35:46.167Z,3.10
2022-10-25T05:38:12.474Z,2.47
2022-10-25T05:40:38.777Z,3.03
2022-10-25T05:43:05.086Z,3.28
2022-10-25T05:45:31.456Z,3.03
2022-10-25T05:47:57.745Z,3.00
2022-10-25T05:50:24.058Z,3.03
2022-10-25T05:52:50.395Z,3.30
2022-10-25T05:55:16.766Z,3.20
2022-10-25T05:57:43.054Z,3.47
2022-10-25T06:00:09.577Z,2.95
2022-10-25T06:02:35.885Z,3.83
2022-10-25T06:05:02.225Z,3.90
2022-10-25T06:07:28.604Z,3.10
2022-10-25T06:09:54.937Z,3.50
2022-10-25T06:12:21.276Z,3.88
2022-10-25T06:14:47.637Z,3.70
2022-10-25T06:17:13.941Z,4.28
2022-10-25T06:19:40.242Z,2.63
2022-10-25T06:22:06.549Z,3.47
2022-10-25T06:24:32.905Z,4.05
2022-10-25T06:26:59.229Z,3.45
2022-10-25T06:29:25.590Z,3.40
2022-10-25T06:31:51.922Z,3.05
2022-10-25T06:34:18.252Z,2.83
2022-10-25T06:36:44.554Z,2.97
2022-10-25T06:39:10.846Z,3.30
2022-10-25T06:41:37.840Z,3.17
2022-10-25T06:44:06.490Z,3.00
2022-10-25T06:46:36.089Z,3.33
2022-10-25T06:49:06.960Z,2.78
2022-10-25T06:51:34.345Z,3.00
2022-10-25T06:54:01.333Z,3.13
2022-10-25T06:56:28.359Z,3.30
2022-10-25T06:58:55.081Z,3.28
2022-10-25T07:01:22.263Z,3.50
2022-10-25T07:03:50.547Z,3.47
2022-10-25T07:06:18.559Z,3.33
2022-10-25T07:08:46.063Z,3.42
2022-10-25T07:11:16.897Z,3.97
2022-10-25T07:13:43.617Z,3.40
2022-10-25T07:16:11.365Z,4.32
2022-10-25T07:18:38.277Z,4.22
2022-10-25T07:21:10.249Z,4.40
2022-10-25T07:23:41.935Z,4.13
2022-10-25T07:26:12.720Z,3.85
2022-10-25T07:28:39.482Z,3.83
2022-10-25T07:31:06.386Z,4.78
2022-10-25T07:33:32.690Z,4.28
2022-10-25T07:36:09.697Z,5.18
2022-10-25T07:38:36.783Z,4.97
2022-10-25T07:41:03.453Z,3.95
2022-10-25T07:43:29.822Z,4.25
2022-10-25T07:45:56.293Z,4.88
2022-10-25T07:48:22.985Z,4.07
2022-10-25T07:50:49.325Z,4.43
2022-10-25T07:53:15.636Z,4.25
2022-10-25T07:55:41.941Z,4.68
2022-10-25T07:58:09.702Z,4.82
2022-10-25T08:00:36.517Z,6.38
2022-10-25T08:03:03.301Z,4.95
2022-10-25T08:05:29.660Z,4.82
2022-10-25T08:07:55.985Z,6.20
2022-10-25T08:10:22.373Z,6.07
2022-10-25T08:12:49.463Z,5.43
2022-10-25T08:15:16.278Z,6.95
2022-10-25T08:17:42.628Z,6.32
2022-10-25T08:20:09.214Z,7.18
2022-10-25T08:22:35.581Z,7.13
2022-10-25T08:25:04.392Z,7.88
2022-10-25T08:27:31.022Z,6.25
2022-10-25T08:29:57.332Z,6.57
2022-10-25T08:32:23.697Z,6.50
2022-10-25T08:34:50.004Z,6.30
2022-10-25T08:37:16.456Z,7.00
2022-10-25T08:39:43.586Z,7.30
2022-10-25T08:42:14.553Z,6.50
2022-10-25T08:44:53.569Z,5.88
2022-10-25T08:47:19.904Z,5.70
2022-10-25T08:50:05.197Z,5.28
2022-10-25T08:52:31.545Z,5.32
2022-10-25T08:55:01.733Z,5.25
2022-10-25T08:57:33.400Z,5.72
2022-10-25T09:00:10.405Z,5.90
2022-10-25T09:02:36.782Z,5.05
2022-10-25T09:05:03.397Z,4.55
2022-10-25T09:07:38.409Z,5.55
2022-10-25T09:10:25.281Z,4.85
2022-10-25T09:13:10.568Z,5.22
2022-10-25T09:15:47.903Z,4.72
2022-10-25T09:18:15.789Z,4.47
2022-10-25T09:20:48.377Z,5.55
2022-10-25T09:25:59.833Z,5.68
2022-10-25T09:28:41.780Z,4.40
2022-10-25T09:31:11.165Z,4.70
2022-10-25T09:33:40.105Z,5.50
2022-10-25T09:36:08.065Z,5.13
2022-10-25T09:38:37.382Z,4.72
2022-10-25T09:41:05.444Z,4.80
2022-10-25T09:43:34.508Z,4.65
2022-10-25T09:46:04.557Z,4.57
2022-10-25T09:48:40.531Z,4.93
2022-10-25T09:51:14.750Z,4.03
2022-10-25T09:53:41.660Z,4.35
2022-10-25T09:56:08.061Z,4.80
2022-10-25T09:58:37.776Z,4.25
2022-10-25T10:01:05.754Z,4.15
2022-10-25T10:03:33.839Z,4.20
2022-10-25T10:06:01.808Z,4.47
2022-10-25T10:08:28.383Z,4.03
2022-10-25T10:10:55.314Z,3.60
2022-10-25T10:13:28.956Z,4.45
2022-10-25T10:15:57.641Z,3.60
2022-10-25T10:18:33.636Z,4.07
2022-10-25T10:21:12.278Z,3.30
2022-10-25T10:23:45.582Z,3.38
2022-10-25T10:26:19.161Z,3.38
2022-10-25T10:28:50.474Z,3.13
2022-10-25T10:31:17.900Z,3.25
2022-10-25T10:33:51.413Z,3.67
2022-10-25T10:36:22.157Z,2.45
2022-10-25T10:38:48.509Z,3.35
2022-10-25T10:41:20.677Z,3.00
2022-10-25T10:43:46.973Z,3.03
2022-10-25T10:46:17.157Z,3.05
2022-10-25T10:48:45.252Z,2.85
2022-10-25T10:51:31.999Z,3.15
2022-10-25T10:54:12.393Z,2.65
2022-10-25T10:56:39.349Z,2.85
2022-10-25T10:59:05.686Z,2.25
2022-10-25T11:01:33.538Z,2.67
2022-10-25T11:04:01.150Z,2.38
2022-10-25T11:06:32.168Z,2.47
2022-10-25T11:09:16.032Z,2.17
2022-10-25T11:11:42.829Z,2.00
2022-10-25T11:14:15.744Z,2.22
2022-10-25T11:16:42.034Z,2.47
2022-10-25T11:19:21.369Z,1.80
2022-10-25T11:21:59.055Z,2.72
2022-10-25T11:24:29.505Z,2.60
2022-10-25T11:26:58.874Z,2.58
2022-10-25T11:29:41.528Z,2.40
2022-10-25T11:34:37.272Z,2.10
2022-10-25T11:37:16.901Z,2.05
2022-10-25T11:40:07.852Z,1.83
2022-10-25T11:42:52.987Z,2.60
2022-10-25T11:45:39.325Z,1.83
2022-10-25T11:48:21.899Z,1.88
2022-10-25T11:53:34.753Z,1.63
2022-10-25T11:56:13.298Z,1.95
2022-10-25T11:58:53.929Z,1.70
2022-10-25T12:01:23.354Z,1.67
2022-10-25T12:04:08.402Z,2.00
2022-10-25T12:06:45.624Z,2.03
2022-10-25T12:09:24.450Z,2.05
2022-10-25T12:12:02.285Z,1.92
2022-10-25T12:14:30.257Z,1.98
2022-10-25T12:16:57.972Z,1.52
2022-10-25T12:19:28.800Z,1.40
2022-10-25T12:21:59.320Z,1.60
2022-10-25T12:24:41.078Z,1.50
2022-10-25T12:27:08.109Z,1.30
2022-10-25T12:29:39.296Z,2.17
2022-10-25T12:32:12.477Z,1.85
2022-10-25T12:34:43.618Z,1.73
2022-10-25T12:37:28.885Z,2.00
2022-10-25T12:39:56.101Z,1.75
2022-10-25T12:42:27.710Z,2.15
2022-10-25T12:44:57.065Z,1.60
2022-10-25T12:47:41.826Z,1.92
2022-10-25T12:50:21.180Z,2.00
2022-10-25T12:52:59.937Z,2.20
2022-10-25T12:55:32.152Z,2.30
2022-10-25T12:58:19.630Z,2.38
2022-10-25T13:01:10.402Z,2.13
2022-10-25T13:03:36.718Z,2.03
2022-10-25T13:06:09.124Z,2.50
2022-10-25T13:11:03.561Z,2.45
2022-10-25T13:13:33.629Z,1.85
2022-10-25T13:16:01.389Z,1.77
2022-10-25T13:18:33.837Z,1.88
2022-10-25T13:23:51.471Z,1.70
2022-10-25T13:26:19.368Z,1.77
2022-10-25T13:28:45.684Z,1.65
2022-10-25T13:31:29.056Z,1.77
2022-10-25T13:34:21.657Z,1.70
2022-10-25T13:36:51.963Z,1.42
2022-10-25T13:39:23.424Z,2.00
2022-10-25T13:41:50.081Z,1.30
2022-10-25T13:44:20.534Z,2.13
2022-10-25T13:46:47.890Z,1.90
2022-10-25T13:49:27.385Z,1.70
2022-10-25T13:51:57.860Z,1.60
2022-10-25T13:54:24.385Z,1.58
2022-10-25T13:56:52.081Z,1.90
2022-10-25T13:59:34.383Z,1.80
2022-10-25T14:02:08.296Z,1.85
2022-10-25T14:04:36.002Z,1.23
2022-10-25T14:07:31.200Z,1.25
2022-10-25T14:09:57.717Z,1.95
2022-10-25T14:12:24.844Z,1.60
2022-10-25T14:15:02.271Z,1.55
2022-10-25T14:17:28.603Z,1.70
2022-10-25T14:20:02.598Z,1.77
2022-10-25T14:22:34.422Z,1.58
2022-10-25T14:25:04.138Z,2.10
2022-10-25T14:27:32.261Z,1.52
2022-10-25T14:30:31.295Z,2.17
2022-10-25T14:33:01.242Z,1.88
2022-10-25T14:35:31.404Z,1.42
2022-10-25T14:37:57.769Z,1.90
2022-10-25T14:40:25.584Z,1.90
2022-10-25T14:42:54.030Z,2.00
2022-10-25T14:45:25.622Z,2.00
2022-10-25T14:47:52.630Z,1.97
2022-10-25T14:50:20.906Z,2.20
2022-10-25T14:52:49.219Z,1.80
2022-10-25T14:55:28.139Z,2.53
2022-10-25T14:57:55.227Z,2.17
2022-10-25T15:00:22.636Z,1.77
2022-10-25T15:02:53.223Z,1.65
2022-10-25T15:05:21.026Z,1.88
2022-10-25T15:07:49.024Z,1.70
2022-10-25T15:10:30.800Z,1.75
2022-10-25T15:13:13.389Z,1.48
2022-10-25T15:15:43.985Z,1.75
2022-10-25T15:18:21.086Z,1.38
2022-10-25T15:21:00.945Z,1.85
2022-10-25T15:23:27.277Z,1.58
2022-10-25T15:25:53.593Z,1.33
2022-10-25T15:28:20.446Z,1.50
2022-10-25T15:30:49.836Z,1.67
2022-10-25T15:33:16.116Z,1.50
2022-10-25T15:35:48.394Z,1.80
2022-10-25T15:38:17.278Z,1.38
2022-10-25T15:40:44.224Z,1.58
2022-10-25T15:43:10.681Z,1.85
2022-10-25T15:45:40.028Z,1.70
2022-10-25T15:48:07.580Z,1.63
2022-10-25T15:50:33.981Z,1.60
2022-10-25T15:53:01.063Z,2.35
2022-10-25T15:55:27.877Z,2.90
2022-10-25T15:57:54.879Z,3.50
2022-10-25T16:00:25.701Z,5.32
2022-10-25T16:02:54.800Z,5.50
2022-10-25T16:05:26.463Z,6.07
2022-10-25T16:07:53.503Z,6.28
2022-10-25T16:10:21.126Z,6.38
2022-10-25T16:12:57.052Z,5.30
2022-10-25T16:15:25.933Z,5.00
2022-10-25T16:17:52.246Z,3.67
2022-10-25T16:20:20.357Z,3.70
2022-10-25T16:22:47.062Z,4.65
2022-10-25T16:25:14.010Z,3.72
2022-10-25T16:27:42.885Z,5.07
2022-10-25T16:30:13.955Z,5.60
2022-10-25T16:32:40.639Z,6.93
2022-10-25T16:35:07.268Z,6.40
2022-10-25T16:37:33.599Z,6.18
2022-10-25T16:40:00.018Z,5.47
2022-10-25T16:42:26.336Z,7.43
2022-10-25T16:44:52.750Z,11.45
2022-10-25T16:47:21.313Z,10.40
2022-10-25T16:49:47.869Z,14.65
2022-10-25T16:52:14.525Z,7.85
2022-10-25T16:54:40.962Z,8.88
2022-10-25T16:57:07.408Z,8.20
2022-10-25T16:59:33.777Z,8.05
2022-10-25T17:02:00.233Z,9.38
2022-10-25T17:04:27.748Z,9.18
2022-10-25T17:06:54.193Z,9.15
2022-10-25T17:09:20.493Z,6.45
2022-10-25T17:11:46.892Z,4.63
2022-10-25T17:14:14.171Z,4.38
2022-10-25T17:16:41.477Z,4.97
2022-10-25T17:19:09.680Z,4.57
2022-10-25T17:21:36.199Z,5.38
2022-10-25T17:24:03.303Z,4.93
2022-10-25T17:26:29.942Z,3.97
2022-10-25T17:29:00.808Z,4.32
2022-10-25T17:31:32.474Z,5.28
2022-10-25T17:33:59.629Z,3.93
2022-10-25T17:36:26.144Z,3.50
2022-10-25T17:38:52.512Z,2.40
2022-10-25T17:41:18.865Z,3.20
2022-10-25T17:43:45.194Z,3.45
2022-10-25T17:46:30.671Z,3.38
2022-10-25T17:49:01.749Z,2.50
2022-10-25T17:51:28.060Z,2.97
2022-10-25T17:53:55.014Z,4.15
2022-10-25T17:56:22.069Z,3.88
2022-10-25T17:58:49.005Z,4.38
2022-10-25T18:01:20.348Z,5.35
2022-10-25T18:03:46.867Z,5.97
2022-10-25T18:06:14.392Z,5.60
2022-10-25T18:08:40.955Z,5.50
2022-10-25T18:11:14.609Z,7.13
2022-10-25T18:13:41.695Z,6.95
2022-10-25T18:16:08.686Z,6.00
2022-10-25T18:18:35.241Z,5.38
2022-10-25T18:21:04.671Z,5.97
2022-10-25T18:23:31.037Z,7.70
2022-10-25T18:25:57.416Z,6.57
2022-10-25T18:28:23.834Z,6.95
2022-10-25T18:30:50.234Z,7.13
2022-10-25T18:33:18.521Z,11.13
2022-10-25T18:35:44.850Z,14.02
2022-10-25T18:38:17.013Z,11.25
2022-10-25T18:40:44.265Z,8.35
2022-10-25T18:43:10.625Z,7.40
2022-10-25T18:45:37.310Z,6.13
2022-10-25T18:48:04.337Z,4.88
2022-10-25T18:50:30.646Z,4.55
2022-10-25T18:52:57.044Z,4.75
2022-10-25T18:55:26.359Z,5.93
2022-10-25T18:57:54.650Z,9.95
2022-10-25T19:00:23.706Z,17.40
2022-10-25T19:02:52.516Z,34.25
2022-10-25T19:05:19.077Z,27.88
2022-10-25T19:07:45.712Z,13.20
2022-10-25T19:10:12.393Z,7.70
2022-10-25T19:12:38.696Z,5.57
2022-10-25T19:15:05.216Z,5.03
2022-10-25T19:17:31.580Z,5.47
2022-10-25T19:19:57.913Z,6.30
2022-10-25T19:22:24.267Z,7.30
2022-10-25T19:24:50.641Z,5.95
2022-10-25T19:27:17.064Z,4.78
2022-10-25T19:29:43.357Z,4.38
2022-10-25T19:32:09.662Z,6.22
2022-10-25T19:34:36.757Z,6.60
2022-10-25T19:37:04.364Z,5.82
2022-10-25T19:39:31.301Z,5.85
2022-10-25T19:41:57.611Z,7.32
2022-10-25T19:44:23.967Z,6.88
2022-10-25T19:46:50.317Z,8.80
2022-10-25T19:49:16.758Z,7.40
2022-10-25T19:51:43.110Z,6.18
2022-10-25T19:54:09.514Z,4.88
2022-10-25T19:56:38.989Z,7.05
2022-10-25T19:59:05.624Z,6.53
2022-10-25T20:01:32.611Z,7.10
2022-10-25T20:03:59.563Z,8.02
2022-10-25T20:06:30.555Z,6.90
2022-10-25T20:08:57.609Z,6.97
2022-10-25T20:11:24.569Z,6.47
2022-10-25T20:13:54.860Z,5.70
2022-10-25T20:16:21.753Z,5.20
2022-10-25T20:18:48.120Z,4.55
2022-10-25T20:21:15.926Z,5.97
2022-10-25T20:23:44.336Z,5.50
2022-10-25T20:26:12.265Z,5.43
2022-10-25T20:28:38.671Z,6.28
2022-10-25T20:31:05.141Z,6.90
2022-10-25T20:33:31.548Z,6.05
2022-10-25T20:36:00.790Z,6.25
2022-10-25T20:38:27.103Z,7.00
2022-10-25T20:40:53.469Z,5.88
2022-10-25T20:43:19.789Z,5.68
2022-10-25T20:45:48.040Z,6.10
2022-10-25T20:48:17.445Z,6.60
2022-10-25T20:50:49.393Z,5.80
2022-10-25T20:53:16.464Z,6.15
2022-10-25T20:55:44.700Z,5.78
2022-10-25T20:58:11.030Z,7.97
2022-10-25T21:00:37.408Z,7.97
2022-10-25T21:03:03.721Z,8.02
2022-10-25T21:05:30.292Z,7.93
2022-10-25T21:07:56.642Z,8.73
2022-10-25T21:10:23.037Z,8.40
2022-10-25T21:12:49.353Z,5.40
2022-10-25T21:15:15.709Z,5.90
2022-10-25T21:17:42.005Z,6.15
2022-10-25T21:20:08.554Z,5.85
2022-10-25T21:22:34.911Z,4.47
2022-10-25T21:25:01.266Z,6.63
2022-10-25T21:27:27.601Z,6.65
2022-10-25T21:29:54.080Z,5.10
2022-10-25T21:32:20.460Z,3.70
2022-10-25T21:34:46.870Z,4.03
2022-10-25T21:37:13.276Z,4.03
2022-10-25T21:39:39.617Z,4.13
2022-10-25T21:42:05.908Z,4.22
2022-10-25T21:44:32.313Z,4.03
2022-10-25T21:46:58.614Z,3.55
2022-10-25T21:49:24.912Z,4.18
2022-10-25T21:51:51.216Z,3.83
2022-10-25T21:54:17.956Z,3.63
2022-10-25T21:56:44.265Z,4.53
2022-10-25T21:59:10.572Z,4.05
2022-10-25T22:01:36.999Z,4.13
2022-10-25T22:04:03.410Z,5.15
2022-10-25T22:06:30.318Z,4.75
2022-10-25T22:08:57.007Z,5.07
2022-10-25T22:11:24.569Z,5.25
2022-10-25T22:13:58.200Z,5.20
2022-10-25T22:16:25.124Z,5.30
2022-10-25T22:18:53.714Z,5.47
2022-10-25T22:21:20.488Z,5.05
2022-10-25T22:23:47.077Z,5.03
2022-10-25T22:26:14.352Z,5.53
2022-10-25T22:28:41.346Z,4.85
2022-10-25T22:31:09.064Z,5.50
2022-10-25T22:33:35.677Z,5.50
2022-10-25T22:38:34.940Z,5.05
2022-10-25T22:41:02.592Z,4.78
2022-10-25T22:43:29.048Z,4.60
2022-10-25T22:45:55.750Z,4.70
2022-10-25T22:48:22.422Z,5.18
2022-10-25T22:50:49.897Z,5.65
2022-10-25T22:53:16.632Z,5.38
2022-10-25T22:55:43.040Z,5.35
2022-10-25T22:58:09.339Z,5.80
2022-10-25T23:00:35.725Z,4.88
2022-10-25T23:03:02.091Z,5.25
2022-10-25T23:05:28.473Z,4.65
2022-10-25T23:07:54.765Z,4.93
2022-10-25T23:10:21.089Z,5.15
2022-10-25T23:12:48.146Z,5.13
2022-10-25T23:15:14.757Z,5.75
2022-10-25T23:17:41.102Z,5.20
2022-10-25T23:20:07.641Z,5.00
2022-10-25T23:22:33.982Z,5.45
2022-10-25T23:25:00.301Z,5.70
2022-10-25T23:27:30.851Z,5.28
2022-10-25T23:29:57.176Z,4.55
2022-10-25T23:32:23.518Z,5.28
2022-10-25T23:34:51.543Z,5.97
2022-10-25T23:37:20.017Z,5.20
2022-10-25T23:39:46.310Z,5.03
2022-10-25T23:42:12.662Z,5.72
2022-10-25T23:44:38.960Z,5.75
2022-10-25T23:47:05.300Z,5.25
2022-10-25T23:49:31.598Z,4.72
2022-10-25T23:51:57.893Z,5.68
2022-10-25T23:54:25.244Z,5.10
2022-10-25T23:56:51.786Z,4.53
2022-10-25T23:59:18.203Z,4.70
